ADDS METAR Data INFO
IDs: Format: Raw Decoded Include TAF

Data at: 1933 UTC 19 Jul 2018

KDZJ 191915Z AUTO 10011KT 10SM SCT034 28/20 A3004 RMK AO2 T02850204
KDZJ 191855Z AUTO 10012G17KT 10SM SCT032 29/21 A3005 RMK AO2 T02870206
KDZJ 191835Z AUTO 12011G15KT 10SM SCT032 29/21 A3005 RMK AO2 T02870207
KDZJ 191815Z AUTO 11008KT 10SM SCT030 28/21 A3005 RMK AO2 T02850209
KDZJ 191755Z AUTO 13011G16KT 10SM SCT030 28/21 A3006 RMK AO2 T02830208 10290 20179
KDZJ 191735Z AUTO 15008KT 10SM SCT032 SCT055 28/20 A3007 RMK AO2 T02760203
KDZJ 191715Z AUTO 14010G16KT 10SM SCT034 SCT055 BKN065 28/20 A3006 RMK AO2 T02800202
KDZJ 191655Z AUTO 12010KT 10SM SCT034 SCT065 28/20 A3007 RMK AO2 T02800201
KDZJ 191635Z AUTO 15009KT 10SM CLR 28/21 A3008 RMK AO2 T02850205
KDZJ 191615Z AUTO 12008KT 090V150 10SM SCT030 28/21 A3008 RMK AO2 T02820208
KDZJ 191555Z AUTO 10009KT 10SM SCT030 27/20 A3008 RMK AO2 T02740205
KDZJ 191535Z AUTO 14009G16KT 10SM SCT026 27/21 A3008 RMK AO2 T02720208
KDZJ 191515Z AUTO 13009G15KT 10SM SCT024 SCT050 27/20 A3008 RMK AO2 LTG DSNT W T02690204
KDZJ 191455Z AUTO 10010KT 080V140 10SM SCT024 BKN050 27/21 A3008 RMK AO2 T02690209
KDZJ 191435Z AUTO 10009KT 10SM SCT026 SCT031 BKN050 26/20 A3008 RMK AO2 LTG DSNT SE AND W T02610204
KDZJ 191415Z AUTO 10006KT 10SM SCT026 BKN050 26/20 A3008 RMK AO2 LTG DSNT W T02600202
KDZJ 191355Z AUTO 11006KT 10SM CLR 25/19 A3008 RMK AO2 LTG DSNT W T02530188
KDZJ 191335Z AUTO 09004KT 10SM CLR 25/19 A3008 RMK AO2 LTG DSNT W T02510191
KDZJ 191315Z AUTO 00000KT 10SM CLR 24/18 A3008 RMK AO2 T02370181
KDZJ 191255Z AUTO 00000KT 10SM CLR 22/19 A3008 RMK AO2 LTG DSNT SE T02190190
KDZJ 191235Z AUTO 01003KT 10SM CLR 21/19 A3007 RMK AO2 LTG DSNT W T02070187
KDZJ 191215Z AUTO 00000KT 10SM CLR 19/18 A3007 RMK AO2 LTG DSNT W T01880175
KDZJ 191155Z AUTO 00000KT 10SM CLR 18/17 A3006 RMK AO2 T01790170 10179 20159
KDZJ 191135Z AUTO 00000KT 5SM BR CLR 17/16 A3006 RMK AO2 T01700164
KDZJ 191115Z AUTO 00000KT 5SM BR CLR 16/16 A3006 RMK AO2 LTG DSNT W T01630160
KDZJ 191055Z AUTO 00000KT 7SM CLR 16/16 A3005 RMK AO2 T01600156
KDZJ 191035Z AUTO 00000KT 7SM CLR 16/16 A3005 RMK AO2 T01600157
KDZJ 191015Z AUTO 00000KT 7SM CLR 16/16 A3004 RMK AO2 T01620159
KDZJ 190955Z AUTO 00000KT 7SM CLR 16/16 A3003 RMK AO2 T01630160
KDZJ 190935Z AUTO 00000KT 7SM CLR 16/16 A3003 RMK AO2 T01630160
KDZJ 190915Z AUTO 00000KT 7SM SCT039 16/16 A3003 RMK AO2 T01620159
KDZJ 190855Z AUTO 00000KT 7SM SCT039 16/16 A3003 RMK AO2 T01640161
KDZJ 190835Z AUTO 00000KT 7SM CLR 16/16 A3002 RMK AO2 T01640161
KDZJ 190815Z AUTO 00000KT 10SM CLR 17/16 A3002 RMK AO2 T01660163
KDZJ 190755Z AUTO 00000KT 7SM CLR 17/16 A3002 RMK AO2 T01670164
KDZJ 190735Z AUTO 00000KT 7SM CLR 17/16 A3002 RMK AO2 T01680165
KDZJ 190715Z AUTO 00000KT 7SM CLR 17/16 A3002 RMK AO2 T01680165
KDZJ 190655Z AUTO 00000KT 10SM CLR 17/17 A3003 RMK AO2 T01700166
KDZJ 190635Z AUTO 00000KT 7SM CLR 17/17 A3003 RMK AO2 T01710167
KDZJ 190615Z AUTO 00000KT 10SM CLR 17/17 A3004 RMK AO2 T01720168
KDZJ 190555Z AUTO 00000KT 10SM CLR 17/17 A3004 RMK AO2 T01740169 10257 20172
KDZJ 190535Z AUTO 00000KT 7SM CLR 17/17 A3004 RMK AO2 T01750169
KDZJ 190515Z AUTO 00000KT 10SM CLR 18/17 A3005 RMK AO2 T01770170
KDZJ 190455Z AUTO 00000KT 10SM CLR 18/17 A3005 RMK AO2 T01770170
KDZJ 190435Z AUTO 00000KT 10SM CLR 18/17 A3005 RMK AO2 T01790173
KDZJ 190415Z AUTO 00000KT 10SM CLR 18/17 A3005 RMK AO2 T01810174
KDZJ 190355Z AUTO 00000KT 10SM CLR 18/18 A3005 RMK AO2 T01840175
KDZJ 190335Z AUTO 00000KT 10SM CLR 18/18 A3005 RMK AO2 T01840176
KDZJ 190315Z AUTO 00000KT 10SM CLR 19/18 A3006 RMK AO2 T01880177
KDZJ 190255Z AUTO 00000KT 10SM CLR 19/18 A3005 RMK AO2 T01910176
KDZJ 190235Z AUTO 00000KT 10SM CLR 19/18 A3005 RMK AO2 T01940177
KDZJ 190215Z AUTO 17003KT 10SM CLR 20/18 A3004 RMK AO2 T01970178
KDZJ 190155Z AUTO 00000KT 10SM CLR 20/18 A3003 RMK AO2 T01990181
KDZJ 190135Z AUTO 27003KT 10SM CLR 21/18 A3002 RMK AO2 T02090183
KDZJ 190115Z AUTO 00000KT 10SM CLR 21/18 A3002 RMK AO2 T02120181
KDZJ 190055Z AUTO 19003KT 10SM CLR 22/18 A3002 RMK AO2 T02190182
KDZJ 190035Z AUTO 00000KT 10SM CLR 23/18 A3001 RMK AO2 T02300178
KDZJ 190015Z AUTO 00000KT 10SM CLR 25/17 A3001 RMK AO2 LTG DSNT W T02470173
KDZJ 182355Z AUTO 00000KT 10SM CLR 25/17 A3001 RMK AO2 T02540172 10307 20248 403070190
KDZJ 182335Z AUTO 30003KT 10SM CLR 27/17 A3001 RMK AO2 T02680169
KDZJ 182315Z AUTO 00000KT 10SM CLR 27/17 A3000 RMK AO2 T02710166
KDZJ 182255Z AUTO 33005KT 10SM CLR 28/16 A3000 RMK AO2 T02770156
KDZJ 182235Z AUTO 32004KT 10SM CLR 28/16 A3000 RMK AO2 T02790157
KDZJ 182215Z AUTO 34004KT 10SM CLR 28/17 A2999 RMK AO2 T02830167
KDZJ 182155Z AUTO 36006KT 10SM CLR 29/17 A3000 RMK AO2 T02860174
KDZJ 182135Z AUTO 36007KT 330V060 10SM CLR 29/18 A3000 RMK AO2 T02890181
KDZJ 182115Z AUTO 31007KT 270V340 10SM CLR 29/19 A3000 RMK AO2 T02930186
KDZJ 182055Z AUTO 32006KT 10SM CLR 30/20 A3000 RMK AO2 LTG DSNT W T02990195
KDZJ 182035Z AUTO 01004KT 10SM CLR 30/17 A3000 RMK AO2 T03040170
KDZJ 182015Z AUTO 33005KT 10SM CLR 30/15 A3001 RMK AO2 T03030147
KDZJ 181955Z AUTO 01004KT 10SM CLR 30/15 A3001 RMK AO2 T03030151
KDZJ 181935Z AUTO 36004KT 10SM CLR 30/16 A3002 RMK AO2 T03000162
KDZJ 181915Z AUTO 33005KT 10SM CLR 30/17 A3003 RMK AO2 LTG DSNT W T02970170
KDZJ 181855Z AUTO 35003KT 10SM CLR 30/17 A3003 RMK AO2 T02960166
KDZJ 181835Z AUTO 35004KT 10SM CLR 30/17 A3004 RMK AO2 T02980172
KDZJ 181815Z AUTO 31003KT 10SM CLR 29/18 A3004 RMK AO2 T02940183
KDZJ 181755Z AUTO 00000KT 10SM CLR 29/17 A3005 RMK AO2 T02930174 10296 20203
KDZJ 181735Z AUTO 34004KT 10SM CLR 29/19 A3005 RMK AO2 T02890194
KDZJ 181715Z AUTO 32003KT 10SM CLR 28/17 A3006 RMK AO2 T02780171
KDZJ 181655Z AUTO 01005KT 10SM CLR 29/19 A3006 RMK AO2 T02870186
KDZJ 181635Z AUTO 35004KT 10SM CLR 28/20 A3006 RMK AO2 T02830199
KDZJ 181615Z AUTO 01004KT 10SM CLR 28/20 A3007 RMK AO2 T02800198
KDZJ 181555Z AUTO 29004KT 10SM CLR 27/21 A3008 RMK AO2 T02750209
KDZJ 181535Z AUTO 28003KT 10SM CLR 27/21 A3008 RMK AO2 T02650214
KDZJ 181515Z AUTO 35003KT 10SM CLR 26/21 A3008 RMK AO2 T02600211
KDZJ 181455Z AUTO 06003KT 7SM SCT010 25/21 A3008 RMK AO2 T02510210
KDZJ 181435Z AUTO 02004KT 7SM SCT010 24/21 A3008 RMK AO2 T02390214
KDZJ 181415Z AUTO 08003KT 10SM SCT008 23/21 A3008 RMK AO2 T02320215
KDZJ 181355Z AUTO 00000KT 10SM OVC006 23/21 A3009 RMK AO2 T02270212
KDZJ 181335Z AUTO 00000KT 10SM OVC006 22/21 A3008 RMK AO2 LTG DSNT W
KDZJ 181315Z AUTO 00000KT 10SM OVC004 21/21 A3008 RMK AO2 T02130206
KDZJ 181255Z AUTO 08003KT 7SM OVC004 22/21 A3008 RMK AO2 T02150210
KDZJ 181235Z AUTO 04003KT 7SM BR OVC004 21/21 A3008 RMK AO2 T02100207
KDZJ 181215Z AUTO 00000KT 5SM BR OVC002 21/20 A3007 RMK AO2 T02060204
KDZJ 181155Z AUTO 00000KT 1SM BR OVC002 20/20 A3007 RMK AO2 T02020201 10208 20190
KDZJ 181135Z AUTO 17003KT 3/4SM BR OVC002 20/20 A3006 RMK AO2 LTG DSNT SE T01980197
KDZJ 181115Z AUTO 00000KT M1/4SM FG OVC002 20/20 A3006 RMK AO2 T01980197
KDZJ 181055Z AUTO 00000KT M1/4SM FG OVC002 20/20 A3005 RMK AO2 T01970196
KDZJ 181035Z AUTO 00000KT M1/4SM FG OVC002 20/20 A3004 RMK AO2 T01970196
KDZJ 181015Z AUTO 00000KT 1/4SM FG OVC002 20/20 A3004 RMK AO2 T01990198
KDZJ 180955Z AUTO 00000KT 1/4SM FG OVC002 20/20 A3004 RMK AO2 T01960195
KDZJ 180935Z AUTO 00000KT 1/2SM FG OVC002 20/19 A3002 RMK AO2 T01950194
KDZJ 180915Z AUTO 00000KT 2SM BR BKN002 19/19 A3002 RMK AO2 VIS 3/4V5 T01950193
KDZJ 180855Z AUTO 00000KT 1 3/4SM BR VV007 19/19 A3001 RMK AO2 VIS 1/2V4 T01930192
KDZJ 180835Z AUTO 00000KT 2 1/2SM BR CLR 19/19 A3002 RMK AO2 VIS 1 1/4V4 T01940193
KDZJ 180815Z AUTO 00000KT 3 1/2SM BR CLR 20/20 A3002 RMK AO2 T01980196
KDZJ 180800Z AUTO 00000KT 3 1/2SM BR CLR 20/20 A3002 RMK AO2 T01970195
KDZJ 180735Z AUTO 24003KT 4SM BR CLR 20/20 A3002 RMK AO2 T01980196